createdAt,value
2022-11-16T00:02:57.512Z,17.42
2022-11-16T00:06:02.218Z,17.65
2022-11-16T00:09:23.116Z,16.92
2022-11-16T00:12:25.344Z,13.50
2022-11-16T00:15:27.983Z,18.23
2022-11-16T00:18:31.107Z,17.02
2022-11-16T00:21:34.039Z,18.30
2022-11-16T00:24:36.294Z,16.73
2022-11-16T00:27:38.499Z,17.07
2022-11-16T00:30:40.972Z,14.83
2022-11-16T00:33:43.186Z,16.45
2022-11-16T00:36:45.695Z,17.00
2022-11-16T00:39:47.921Z,17.23
2022-11-16T00:42:50.213Z,16.53
2022-11-16T00:45:52.619Z,16.50
2022-11-16T00:48:54.869Z,16.05
2022-11-16T00:51:57.097Z,16.33
2022-11-16T00:54:59.312Z,13.95
2022-11-16T00:58:01.552Z,15.23
2022-11-16T01:01:08.524Z,14.10
2022-11-16T01:04:10.978Z,14.57
2022-11-16T01:07:13.166Z,13.85
2022-11-16T01:10:21.424Z,14.87
2022-11-16T01:13:23.569Z,15.33
2022-11-16T01:16:25.889Z,15.10
2022-11-16T01:19:28.354Z,17.60
2022-11-16T01:22:30.693Z,17.17
2022-11-16T01:25:33.167Z,16.00
2022-11-16T01:28:35.858Z,17.73
2022-11-16T01:34:57.719Z,17.15
2022-11-16T01:38:00.043Z,16.00
2022-11-16T01:41:02.284Z,15.32
2022-11-16T01:44:33.361Z,16.93
2022-11-16T01:47:35.621Z,15.93
2022-11-16T01:50:39.189Z,15.50
2022-11-16T01:53:41.822Z,15.85
2022-11-16T01:56:47.811Z,15.70
2022-11-16T01:59:54.134Z,15.70
2022-11-16T02:02:56.607Z,15.93
2022-11-16T02:06:26.939Z,16.90
2022-11-16T02:09:59.612Z,14.50
2022-11-16T02:13:04.860Z,16.48
2022-11-16T02:16:25.737Z,15.23
2022-11-16T02:19:55.625Z,15.63
2022-11-16T02:23:34.288Z,16.35
2022-11-16T02:26:39.208Z,16.48
2022-11-16T02:29:52.498Z,15.85
2022-11-16T02:33:18.147Z,16.63
2022-11-16T02:36:24.262Z,16.03
2022-11-16T02:39:30.183Z,14.70
2022-11-16T02:42:41.618Z,15.52
2022-11-16T02:45:48.356Z,15.40
2022-11-16T02:48:55.261Z,15.67
2022-11-16T02:51:59.171Z,15.93
2022-11-16T02:55:01.510Z,16.45
2022-11-16T02:58:11.577Z,16.10
2022-11-16T03:01:23.977Z,16.55
2022-11-16T03:04:38.060Z,16.07
2022-11-16T03:07:48.215Z,15.97
2022-11-16T03:11:14.199Z,13.93
2022-11-16T03:14:20.796Z,15.23
2022-11-16T03:17:30.316Z,15.07
2022-11-16T03:20:35.709Z,15.93
2022-11-16T03:23:38.209Z,15.47
2022-11-16T03:27:07.364Z,15.90
2022-11-16T03:30:18.986Z,15.15
2022-11-16T03:33:29.428Z,14.15
2022-11-16T03:36:35.222Z,15.23
2022-11-16T03:39:39.867Z,13.37
2022-11-16T03:42:43.148Z,12.82
2022-11-16T03:45:47.005Z,13.75
2022-11-16T03:48:49.221Z,14.23
2022-11-16T03:51:52.144Z,13.80
2022-11-16T03:54:54.338Z,14.23
2022-11-16T03:57:56.656Z,15.57
2022-11-16T04:00:59.401Z,13.20
2022-11-16T04:04:01.706Z,13.50
2022-11-16T04:07:22.496Z,13.53
2022-11-16T04:10:43.833Z,13.67
2022-11-16T04:14:09.074Z,13.95
2022-11-16T04:17:35.146Z,14.05
2022-11-16T04:20:56.507Z,14.23
2022-11-16T04:24:13.868Z,14.97
2022-11-16T04:27:35.369Z,14.27
2022-11-16T04:30:56.167Z,14.63
2022-11-16T04:34:16.864Z,14.75
2022-11-16T04:37:38.219Z,14.43
2022-11-16T04:40:40.623Z,14.70
2022-11-16T04:43:42.822Z,14.20
2022-11-16T04:47:04.133Z,15.05
2022-11-16T04:50:06.731Z,13.65
2022-11-16T04:53:09.425Z,14.52
2022-11-16T04:56:12.668Z,13.10
2022-11-16T04:59:15.165Z,13.93
2022-11-16T05:02:17.380Z,13.48
2022-11-16T05:05:20.187Z,13.62
2022-11-16T05:08:22.395Z,13.55
2022-11-16T05:11:24.676Z,13.90
2022-11-16T05:14:27.083Z,12.57
2022-11-16T05:17:29.878Z,13.40
2022-11-16T05:20:50.924Z,13.98
2022-11-16T05:24:11.727Z,14.27
2022-11-16T05:27:17.255Z,13.67
2022-11-16T05:30:20.049Z,14.93
2022-11-16T05:33:22.298Z,14.68
2022-11-16T05:36:24.655Z,15.55
2022-11-16T05:39:26.993Z,15.05
2022-11-16T05:42:29.272Z,14.13
2022-11-16T05:45:31.579Z,14.37
2022-11-16T05:48:33.988Z,14.35
2022-11-16T05:51:38.347Z,14.18
2022-11-16T05:54:40.603Z,14.60
2022-11-16T05:57:43.140Z,14.23
2022-11-16T06:00:48.547Z,15.27
2022-11-16T06:03:51.361Z,13.85
2022-11-16T06:06:53.812Z,15.65
2022-11-16T06:09:56.129Z,14.20
2022-11-16T06:12:58.368Z,13.73
2022-11-16T06:16:01.362Z,15.03
2022-11-16T06:19:03.591Z,14.07
2022-11-16T06:22:05.867Z,16.42
2022-11-16T06:25:08.675Z,15.30
2022-11-16T06:28:11.184Z,14.23
2022-11-16T06:31:13.723Z,14.93
2022-11-16T06:34:16.275Z,14.55
2022-11-16T06:37:19.125Z,14.38
2022-11-16T06:40:21.622Z,14.18
2022-11-16T06:43:27.336Z,13.83
2022-11-16T06:46:29.485Z,14.47
2022-11-16T06:49:32.402Z,15.40
2022-11-16T06:52:34.720Z,15.77
2022-11-16T06:55:37.020Z,14.52
2022-11-16T06:58:41.692Z,14.63
2022-11-16T07:01:45.270Z,13.67
2022-11-16T07:04:47.591Z,14.00
2022-11-16T07:07:54.602Z,16.27
2022-11-16T07:11:01.520Z,14.77
2022-11-16T07:14:06.196Z,14.00
2022-11-16T07:17:09.813Z,13.53
2022-11-16T07:20:12.313Z,15.07
2022-11-16T07:23:14.549Z,13.62
2022-11-16T07:26:16.827Z,12.43
2022-11-16T07:29:19.676Z,13.63
2022-11-16T07:32:22.394Z,13.53
2022-11-16T07:35:25.175Z,13.05
2022-11-16T07:38:27.361Z,12.52
2022-11-16T07:41:29.607Z,13.55
2022-11-16T07:44:31.789Z,12.97
2022-11-16T07:47:38.139Z,13.33
2022-11-16T07:50:40.397Z,11.68
2022-11-16T07:53:43.911Z,13.43
2022-11-16T07:56:46.120Z,13.32
2022-11-16T07:59:48.363Z,12.90
2022-11-16T08:02:50.979Z,12.53
2022-11-16T08:06:08.624Z,12.52
2022-11-16T08:09:11.012Z,11.77
2022-11-16T08:12:13.672Z,11.80
2022-11-16T08:15:16.078Z,12.33
2022-11-16T08:18:19.693Z,11.13
2022-11-16T08:21:21.917Z,11.95
2022-11-16T08:24:24.192Z,12.23
2022-11-16T08:27:26.464Z,10.95
2022-11-16T08:30:28.724Z,11.43
2022-11-16T08:33:31.032Z,11.30
2022-11-16T08:36:33.311Z,11.27
2022-11-16T08:39:35.570Z,11.63
2022-11-16T08:42:43.254Z,11.48
2022-11-16T08:45:49.761Z,12.57
2022-11-16T08:48:56.729Z,15.87
2022-11-16T08:51:58.945Z,18.05
2022-11-16T08:55:01.169Z,19.02
2022-11-16T08:58:03.657Z,18.58
2022-11-16T09:01:14.677Z,17.37
2022-11-16T09:04:18.927Z,16.37
2022-11-16T09:07:21.988Z,16.55
2022-11-16T09:10:26.166Z,14.87
2022-11-16T09:13:28.732Z,14.98
2022-11-16T09:16:30.897Z,13.70
2022-11-16T09:19:35.134Z,13.63
2022-11-16T09:22:37.343Z,13.27
2022-11-16T09:25:39.595Z,13.18
2022-11-16T09:28:41.917Z,13.32
2022-11-16T09:31:44.212Z,13.37
2022-11-16T09:34:46.448Z,13.43
2022-11-16T09:37:48.679Z,12.73
2022-11-16T09:40:50.935Z,12.63
2022-11-16T09:44:10.882Z,14.05
2022-11-16T09:47:22.590Z,14.10
2022-11-16T09:50:33.937Z,13.77
2022-11-16T09:53:45.510Z,15.60
2022-11-16T09:56:51.794Z,14.68
2022-11-16T10:00:00.901Z,15.00
2022-11-16T10:03:06.910Z,14.27
2022-11-16T10:06:21.458Z,15.07
2022-11-16T10:09:24.458Z,14.38
2022-11-16T10:12:44.224Z,13.98
2022-11-16T10:16:00.573Z,14.13
2022-11-16T10:19:21.813Z,13.73
2022-11-16T10:22:59.062Z,13.93
2022-11-16T10:26:25.658Z,14.30
2022-11-16T10:30:05.306Z,14.82
2022-11-16T10:33:13.405Z,14.50
2022-11-16T10:36:16.788Z,13.63
2022-11-16T10:39:20.768Z,13.90
2022-11-16T10:42:31.422Z,13.75
2022-11-16T10:45:40.366Z,14.35
2022-11-16T10:49:11.725Z,14.15
2022-11-16T10:52:13.993Z,13.90
2022-11-16T10:55:16.808Z,12.43
2022-11-16T10:58:19.066Z,14.48
2022-11-16T11:01:29.076Z,15.73
2022-11-16T11:04:32.880Z,11.88
2022-11-16T11:07:40.287Z,11.90
2022-11-16T11:10:43.015Z,12.67
2022-11-16T11:13:45.265Z,13.77
2022-11-16T11:16:53.162Z,15.10
2022-11-16T11:20:15.508Z,12.82
2022-11-16T11:23:24.141Z,12.30
2022-11-16T11:26:37.122Z,10.13
2022-11-16T11:29:43.349Z,12.60
2022-11-16T11:32:46.789Z,11.50
2022-11-16T11:36:02.317Z,11.40
2022-11-16T11:39:13.835Z,13.43
2022-11-16T11:42:15.889Z,15.10
2022-11-16T11:45:20.054Z,11.12
2022-11-16T11:48:34.097Z,9.38
2022-11-16T11:51:42.418Z,10.13
2022-11-16T11:54:49.573Z,7.20
2022-11-16T11:57:53.976Z,10.37
2022-11-16T12:01:25.775Z,10.27
2022-11-16T12:04:43.649Z,10.07
2022-11-16T12:07:48.591Z,11.70
2022-11-16T12:11:29.504Z,10.40
2022-11-16T12:15:17.146Z,10.10
2022-11-16T12:18:54.904Z,10.88
2022-11-16T12:22:37.662Z,10.20
2022-11-16T12:26:00.007Z,11.23
2022-11-16T12:29:34.538Z,10.07
2022-11-16T12:33:04.659Z,11.83
2022-11-16T12:36:24.950Z,11.98
2022-11-16T12:39:56.065Z,10.35
2022-11-16T12:43:17.808Z,11.55
2022-11-16T12:46:35.093Z,12.87
2022-11-16T12:49:58.506Z,12.03
2022-11-16T12:53:35.293Z,6.15
2022-11-16T12:56:49.149Z,11.52
2022-11-16T13:00:12.263Z,8.55
2022-11-16T13:03:31.649Z,12.27
2022-11-16T13:06:44.151Z,11.70
2022-11-16T13:09:51.654Z,12.90
2022-11-16T13:13:29.666Z,11.95
2022-11-16T13:16:25.645Z,13.90
2022-11-16T13:19:28.408Z,14.27
2022-11-16T13:22:33.878Z,13.10
2022-11-16T13:25:40.870Z,13.90
2022-11-16T13:29:00.447Z,12.50
2022-11-16T13:32:14.517Z,11.65
2022-11-16T13:35:18.722Z,6.57
2022-11-16T13:38:51.111Z,10.70
2022-11-16T13:42:12.041Z,10.63
2022-11-16T13:45:20.945Z,10.60
2022-11-16T13:48:33.852Z,6.18
2022-11-16T13:51:36.380Z,10.03
2022-11-16T13:54:47.078Z,9.53
2022-11-16T13:57:53.105Z,12.05
2022-11-16T14:01:09.063Z,11.48
2022-11-16T14:07:50.826Z,12.63
2022-11-16T14:10:53.167Z,7.23
2022-11-16T14:13:55.561Z,9.40
2022-11-16T14:16:57.798Z,11.63
2022-11-16T14:20:00.351Z,9.48
2022-11-16T14:23:39.835Z,10.33
2022-11-16T14:27:00.237Z,8.70
2022-11-16T14:30:33.115Z,9.65
2022-11-16T14:33:37.128Z,9.52
2022-11-16T14:36:43.339Z,8.60
2022-11-16T14:39:46.048Z,8.00
2022-11-16T14:46:35.906Z,10.60
2022-11-16T14:49:47.269Z,9.48
2022-11-16T14:52:52.781Z,10.05
2022-11-16T14:56:08.079Z,10.30
2022-11-16T14:59:17.023Z,8.67
2022-11-16T15:02:27.600Z,8.98
2022-11-16T15:05:34.633Z,8.32
2022-11-16T15:08:51.942Z,7.47
2022-11-16T15:12:14.028Z,6.43
2022-11-16T15:15:19.534Z,8.70
2022-11-16T15:18:23.418Z,7.15
2022-11-16T15:21:25.873Z,6.82
2022-11-16T15:24:35.376Z,8.25
2022-11-16T15:27:40.917Z,9.20
2022-11-16T15:30:46.936Z,9.53
2022-11-16T15:33:50.551Z,10.18
2022-11-16T15:36:52.856Z,10.85
2022-11-16T15:39:56.591Z,11.43
2022-11-16T15:43:00.875Z,13.03
2022-11-16T15:46:04.969Z,11.50
2022-11-16T15:49:37.207Z,12.10
2022-11-16T15:52:54.833Z,11.70
2022-11-16T15:55:57.204Z,13.07
2022-11-16T15:59:09.583Z,13.67
2022-11-16T16:02:19.335Z,14.00
2022-11-16T16:05:37.155Z,14.25
2022-11-16T16:08:40.892Z,13.23
2022-11-16T16:11:43.360Z,14.90
2022-11-16T16:14:46.767Z,15.63
2022-11-16T16:17:49.800Z,16.50
2022-11-16T16:20:52.034Z,16.80
2022-11-16T16:23:56.241Z,16.27
2022-11-16T16:26:58.602Z,18.33
2022-11-16T16:30:05.582Z,17.03
2022-11-16T16:33:15.965Z,16.67
2022-11-16T16:36:18.189Z,15.75
2022-11-16T16:39:21.108Z,17.58
2022-11-16T16:42:23.460Z,16.52
2022-11-16T16:45:41.871Z,16.30
2022-11-16T16:48:44.897Z,17.07
2022-11-16T16:51:47.262Z,17.27
2022-11-16T16:54:49.892Z,18.52
2022-11-16T16:57:54.451Z,17.20
2022-11-16T17:01:01.166Z,16.37
2022-11-16T17:04:03.855Z,16.77
2022-11-16T17:07:08.939Z,17.65
2022-11-16T17:10:11.523Z,16.23
2022-11-16T17:13:14.156Z,15.07
2022-11-16T17:16:18.861Z,17.97
2022-11-16T17:19:21.708Z,17.57
2022-11-16T17:22:24.415Z,17.70
2022-11-16T17:25:27.294Z,18.33
2022-11-16T17:28:30.117Z,18.65
2022-11-16T17:31:32.570Z,19.57
2022-11-16T17:34:35.000Z,22.50
2022-11-16T17:37:37.758Z,21.92
2022-11-16T17:40:40.728Z,21.55
2022-11-16T17:43:44.694Z,21.92
2022-11-16T17:46:47.840Z,23.67
2022-11-16T17:49:50.418Z,21.37
2022-11-16T17:52:52.972Z,21.40
2022-11-16T17:55:58.820Z,27.52
2022-11-16T17:59:14.369Z,23.92
2022-11-16T18:02:16.959Z,24.10
2022-11-16T18:05:19.887Z,19.97
2022-11-16T18:08:22.620Z,24.40
2022-11-16T18:11:30.185Z,21.30
2022-11-16T18:14:32.787Z,20.02
2022-11-16T18:17:36.890Z,16.67
2022-11-16T18:20:39.822Z,19.43
2022-11-16T18:23:42.917Z,21.02
2022-11-16T18:26:45.564Z,21.17
2022-11-16T18:29:48.736Z,17.37
2022-11-16T18:32:51.700Z,17.97
2022-11-16T18:35:55.092Z,17.83
2022-11-16T18:38:57.835Z,16.87
2022-11-16T18:42:00.502Z,17.70
2022-11-16T18:45:05.617Z,16.62
2022-11-16T18:48:08.538Z,17.40
2022-11-16T18:51:11.888Z,15.47
2022-11-16T18:54:14.228Z,16.92
2022-11-16T19:00:58.517Z,15.15
2022-11-16T19:04:01.380Z,16.00
2022-11-16T19:07:04.237Z,16.17
2022-11-16T19:10:07.665Z,15.77
2022-11-16T19:13:10.300Z,14.55
2022-11-16T19:16:14.313Z,15.98
2022-11-16T19:19:17.058Z,14.93
2022-11-16T19:22:20.328Z,14.03
2022-11-16T19:25:25.895Z,15.95
2022-11-16T19:28:28.538Z,13.73
2022-11-16T19:31:33.212Z,15.48
2022-11-16T19:34:36.391Z,14.80
2022-11-16T19:37:39.341Z,17.40
2022-11-16T19:40:44.838Z,17.27
2022-11-16T19:43:50.751Z,18.27
2022-11-16T19:46:55.081Z,17.12
2022-11-16T19:49:57.823Z,17.30
2022-11-16T19:53:00.477Z,17.07
2022-11-16T19:56:03.744Z,16.15
2022-11-16T19:59:06.432Z,16.17
2022-11-16T20:02:10.836Z,15.95
2022-11-16T20:05:19.569Z,16.13
2022-11-16T20:08:22.592Z,16.57
2022-11-16T20:11:34.616Z,17.15
2022-11-16T20:14:37.377Z,19.25
2022-11-16T20:17:40.222Z,22.23
2022-11-16T20:20:42.781Z,19.30
2022-11-16T20:23:46.210Z,19.37
2022-11-16T20:26:49.969Z,18.42
2022-11-16T20:29:52.947Z,19.80
2022-11-16T20:32:55.771Z,19.45
2022-11-16T20:36:03.301Z,21.03
2022-11-16T20:39:06.153Z,17.77
2022-11-16T20:42:09.108Z,19.75
2022-11-16T20:45:12.813Z,26.17
2022-11-16T20:48:16.030Z,36.25
2022-11-16T20:51:20.077Z,24.13
2022-11-16T20:54:24.954Z,24.10
2022-11-16T20:57:27.395Z,23.77
2022-11-16T21:00:31.092Z,26.48
2022-11-16T21:03:34.385Z,29.33
2022-11-16T21:06:37.047Z,27.77
2022-11-16T21:09:59.312Z,23.73
2022-11-16T21:13:20.645Z,22.70
2022-11-16T21:16:23.310Z,21.12
2022-11-16T21:19:25.807Z,20.83
2022-11-16T21:22:32.116Z,20.60
2022-11-16T21:25:35.194Z,19.07
2022-11-16T21:28:39.070Z,18.55
2022-11-16T21:31:41.446Z,17.55
2022-11-16T21:34:43.673Z,18.15
2022-11-16T21:37:45.998Z,17.50
2022-11-16T21:40:48.564Z,17.10
2022-11-16T21:43:51.306Z,18.12
2022-11-16T21:46:54.246Z,16.55
2022-11-16T21:50:29.587Z,17.45
2022-11-16T21:53:18.727Z,17.50
2022-11-16T21:56:25.106Z,16.60
2022-11-16T21:59:27.294Z,18.73
2022-11-16T22:02:29.621Z,17.85
2022-11-16T22:05:50.319Z,16.52
2022-11-16T22:08:53.063Z,16.77
2022-11-16T22:11:55.324Z,17.90
2022-11-16T22:14:58.649Z,15.15
2022-11-16T22:18:01.982Z,15.80
2022-11-16T22:21:05.405Z,16.10
2022-11-16T22:24:07.963Z,15.27
2022-11-16T22:27:10.281Z,14.90
2022-11-16T22:30:12.752Z,19.37
2022-11-16T22:33:19.741Z,20.50
2022-11-16T22:36:22.353Z,17.85
2022-11-16T22:39:24.694Z,17.03
2022-11-16T22:42:27.034Z,26.80
2022-11-16T22:45:29.353Z,19.17
2022-11-16T22:48:39.842Z,19.27
2022-11-16T22:51:42.058Z,16.08
2022-11-16T22:54:44.361Z,15.80
2022-11-16T22:57:46.564Z,15.03
2022-11-16T23:00:48.808Z,14.45
2022-11-16T23:03:51.439Z,13.88
2022-11-16T23:06:53.686Z,15.88
2022-11-16T23:09:56.006Z,14.73
2022-11-16T23:13:16.794Z,14.73
2022-11-16T23:16:19.019Z,14.82
2022-11-16T23:19:40.876Z,16.42
2022-11-16T23:23:01.600Z,15.93
2022-11-16T23:26:28.471Z,15.63
2022-11-16T23:29:30.656Z,15.37
2022-11-16T23:32:32.889Z,14.07
2022-11-16T23:35:35.159Z,14.73
2022-11-16T23:38:37.342Z,14.13
2022-11-16T23:41:58.274Z,14.80
2022-11-16T23:45:00.598Z,13.57
2022-11-16T23:48:02.829Z,14.60
2022-11-16T23:51:05.109Z,14.25
2022-11-16T23:54:07.673Z,13.77
2022-11-16T23:57:10.085Z,13.30
